Lena-s. — V2EC7 — position and weather

sailwx.info

Track history (hours):
 
Tides and Currents Weather Stations Pressure Air Temp Water Temp Dewpoint Dewpoint Depression Visibility Wind Speed Wind Dir Waves Ship Positions

Lena-s.

Last reported at 2016-Aug-25 13:30 UTC. Time now 2016-Aug-26 01:32 UTC.
Position N 22°18' E 120°12'.

Length 261 m; draft 10.1 m.

Type: Ship (hazmat cat D). MMSI: 305386000.

Date/timePositionNaut miles runAvg speedWind from/ knotsBaromVisibWave heightAir tempDewpointWater temp
2016-Aug-25 13:30N 22°18' E 120°12'1212.3
2016-Aug-25 12:31N 22°30' E 120°12'7 7.6
2016-Aug-25 11:33N 22°33' E 120°19'0 0.0
2016-Aug-24 22:33N 22°34' E 120°19'6 5.5
2016-Aug-24 21:33N 22°32' E 120°13'10 9.7
2016-Aug-24 20:33N 22°38' E 120°05'1211.6
2016-Aug-24 19:33N 22°44' E 119°54'7011.0
2016-Aug-24 13:10N 23°54' E 120°02'2311.8
2016-Aug-24 11:15N 24°15' E 120°13'1311.8
2016-Aug-24 10:07N 24°26' E 120°20'911.5
2016-Aug-24 09:21N 24°33' E 120°26'911.3
2016-Aug-24 08:32N 24°40' E 120°32'40310.0
2016-Aug-22 16:10N 31°19' E 121°44'711.7
2016-Aug-22 15:33N 31°22' E 121°37'1 1.1
2016-Aug-22 14:19N 31°22' E 121°35'0 0.0
2016-Aug-22 13:25N 31°22' E 121°35'0 0.0
2016-Aug-22 12:25N 31°22' E 121°35'0 0.0
2016-Aug-22 11:25N 31°22' E 121°35'0 0.0
2016-Aug-22 10:25N 31°22' E 121°35'0 0.0
2016-Aug-22 09:31N 31°22' E 121°35'0 0.0
2016-Aug-22 08:31N 31°22' E 121°35'0 0.0
2016-Aug-22 07:25N 31°22' E 121°35'0 0.0
2016-Aug-22 05:31N 31°22' E 121°35'0 0.0
2016-Aug-22 04:25N 31°22' E 121°35'0 0.0
2016-Aug-22 03:33N 31°22' E 121°35'5 4.5
2016-Aug-22 02:33N 31°21' E 121°40'  
2016-Aug-15 16:34N 36°34' E 122°28'1413.8
2016-Aug-15 15:33N 36°45' E 122°39'1414.0
2016-Aug-15 14:34N 36°57' E 122°48'  
Track history (hours):
 
Tides and Currents Weather Stations Pressure Air Temp Water Temp Dewpoint Dewpoint Depression Visibility Wind Speed Wind Dir Waves Ship Positions

Lena-s.

Last reported at 2016-Aug-25 13:30 UTC. Time now 2016-Aug-26 01:32 UTC.
Position N 22°18' E 120°12'.

Length 261 m; draft 10.1 m.

Type: Ship (hazmat cat D). MMSI: 305386000.

Date/timePositionNaut miles runAvg speedWind from/ knotsBaromVisibWave heightAir tempDewpointWater temp
2016-Aug-25 13:30N 22°18' E 120°12'1212.3
2016-Aug-25 12:31N 22°30' E 120°12'7 7.6
2016-Aug-25 11:33N 22°33' E 120°19'0 0.0
2016-Aug-24 22:33N 22°34' E 120°19'6 5.5
2016-Aug-24 21:33N 22°32' E 120°13'10 9.7
2016-Aug-24 20:33N 22°38' E 120°05'1211.6
2016-Aug-24 19:33N 22°44' E 119°54'7011.0
2016-Aug-24 13:10N 23°54' E 120°02'2311.8
2016-Aug-24 11:15N 24°15' E 120°13'1311.8
2016-Aug-24 10:07N 24°26' E 120°20'911.5
2016-Aug-24 09:21N 24°33' E 120°26'911.3
2016-Aug-24 08:32N 24°40' E 120°32'40310.0
2016-Aug-22 16:10N 31°19' E 121°44'711.7
2016-Aug-22 15:33N 31°22' E 121°37'1 1.1
2016-Aug-22 14:19N 31°22' E 121°35'0 0.0
2016-Aug-22 13:25N 31°22' E 121°35'0 0.0
2016-Aug-22 12:25N 31°22' E 121°35'0 0.0
2016-Aug-22 11:25N 31°22' E 121°35'0 0.0
2016-Aug-22 10:25N 31°22' E 121°35'0 0.0
2016-Aug-22 09:31N 31°22' E 121°35'0 0.0
2016-Aug-22 08:31N 31°22' E 121°35'0 0.0
2016-Aug-22 07:25N 31°22' E 121°35'0 0.0
2016-Aug-22 05:31N 31°22' E 121°35'0 0.0
2016-Aug-22 04:25N 31°22' E 121°35'0 0.0
2016-Aug-22 03:33N 31°22' E 121°35'5 4.5
2016-Aug-22 02:33N 31°21' E 121°40'  
2016-Aug-15 16:34N 36°34' E 122°28'1413.8
2016-Aug-15 15:33N 36°45' E 122°39'1414.0
2016-Aug-15 14:34N 36°57' E 122°48'  

Dump ship's entire track history